Bannock, OH (43972)

4:08 PM EDT on October 31, 2014 (GMT -0400)
Crawford Heights | Change Station
CLOSE
Current Station
Personal Weather Station
Location: Martins Ferry, OH
Elevation: 1109 ft
Nearby Weather Stations

Elev 1109 ft 40.09 °N, 80.75 °W | Updated 11 minutes ago

Mostly Cloudy
Mostly Cloudy
45.7 °F
Feels Like 46 °F
N
0.0
Wind Variable Wind from ESE

Today
High -- | Low -- °F
--% Chance of Precip.
Yesterday
High -- | Low -- °F
Precip. -- in
7:51 AM 6:22 PM
First Quarter, 58% visible
Pressure 29.88 in
Visibility 9.0 miles
Clouds Few 1300 ft
Mostly Cloudy 2400 ft
Overcast 3800 ft
Windchill 46 °F
Dew Point 41 °F
Humidity 84%
Rainfall 0.04 in
Snow Depth Not available.
UV 1 out of 12
Pollen .10 out of 12
Air Quality Not available.
Flu Activity Not available.
METAR KHLG 311953Z 22004KT 9SM -RA FEW013 BKN024 OVC038 06/04 A2985 RMK AO2 SLP117 P0000 T00610039

More Conditions Fewer Conditions

Pressure 29.88 in
Visibility 9.0 miles
Clouds Few 1300 ft
Mostly Cloudy 2400 ft
Overcast 3800 ft
Windchill 46 °F
Dew Point 41 °F
Humidity 84%
Rainfall 0.04 in
Snow Depth Not available.
UV 1 out of 12
Pollen .10 out of 12
Air Quality Not available.
Flu Activity Not available.
METAR KHLG 311953Z 22004KT 9SM -RA FEW013 BKN024 OVC038 06/04 A2985 RMK AO2 SLP117 P0000 T00610039

More Conditions Fewer Conditions

10-Day Weather Forecast

Almanac

Astronomy

Oct. 31, 2014 Rise Set
Actual Time
Civil Twilight
Nautical Twilight
Astronomical Twilight
Moon
Length of Visible Light
Length of Day
Tomorrow will be .
, % of the Moon is Illuminated

Today's Extremes

State Highs State Lows

Community

WunderPhotos

Upload Photos

1,766,717 photos uploaded!

WunderBlogs® & News

Nearby

Air Quality

  Air Quality AQ Index Pollutant
Not available.

Snow Depth

Station Depth Elevation

Earthquake Activity

City Distance Mag. Time & Date
Minimum magnitude displayed is 2.5.

Coastal Water Temperatures

Place Temperature

Nearby Weather Stations